Villa Las Mercedes, Puerto Rico
Current Conditions -  °F | °C
As of 3:53 PM on Thursday 23 Oct 2014 (Local Time) from TJNR Reporting Station
Broken Clouds Broken Clouds  
Wind Chill: 85°   Ceiling: 6000
Heat Index: 93°   Visibility: 10mi
Dew Point: 75°   Wind: 9mph
Humidity: 72%   Direction: 110°ESE
Pressure: 29.9"   Gusts: NA
Location:  18.1853°N, 65.8667°W
Report Text: TJNR 231953Z AUTO 11008KT 10SM FEW028 SCT046 BKN060 29/24 A2990 RMK AO2 SLP126 T02940239 $
Loading
Personal Weather Stations






























Interactive Weather Map
Tropical Storm Tracking
New forecast layout! Learn more

10-Day Weather Forecast

Advertisements
Track Severe Weather on mobile